Time,TemperatureF,DewpointF,PressureIn,WindDirection,WindDirectionDegrees,WindSpeedMPH,WindSpeedGustMPH,Humidity,HourlyPrecipIn,Conditions,Clouds,dailyrainin,SoftwareType,DateUTC
2013-01-14 00:04:00,62.8,60.7,30.16,WNW,286,0.0,0.0,93,0.00,,,0.00,Wunderground v.1.15,2013-01-14 05:04:00,
2013-01-14 00:08:00,62.7,60.6,30.16,WNW,286,0.0,0.0,93,0.00,,,0.00,Wunderground v.1.15,2013-01-14 05:08:00,
2013-01-14 00:18:00,62.4,60.0,30.17,WNW,285,0.0,0.0,92,0.00,,,0.00,Wunderground v.1.15,2013-01-14 05:18:00,
2013-01-14 00:23:00,61.9,59.5,30.17,WNW,286,0.0,0.0,92,0.00,,,0.00,Wunderground v.1.15,2013-01-14 05:23:00,
2013-01-14 00:34:00,61.8,59.8,30.17,WNW,286,0.0,0.0,93,0.00,,,0.00,Wunderground v.1.15,2013-01-14 05:34:00,
2013-01-14 00:43:00,61.3,59.3,30.17,WNW,286,0.0,0.0,93,0.00,,,0.00,Wunderground v.1.15,2013-01-14 05:43:00,
2013-01-14 00:49:00,61.0,59.0,30.17,WNW,285,0.0,0.0,93,0.00,,,0.00,Wunderground v.1.15,2013-01-14 05:49:00,
2013-01-14 00:58:00,60.5,58.5,30.17,WNW,285,0.0,0.0,93,0.00,,,0.00,Wunderground v.1.15,2013-01-14 05:58:00,
2013-01-14 01:04:00,60.4,58.7,30.17,WNW,286,0.0,0.0,94,0.00,,,0.00,Wunderground v.1.15,2013-01-14 06:04:00,
2013-01-14 01:08:00,60.3,58.6,30.17,WNW,286,0.0,0.0,94,0.00,,,0.00,Wunderground v.1.15,2013-01-14 06:08:00,
2013-01-14 01:14:00,60.2,58.5,30.17,WNW,286,0.0,0.0,94,0.00,,,0.00,Wunderground v.1.15,2013-01-14 06:14:00,
2013-01-14 01:23:00,60.3,58.6,30.18,WNW,286,0.0,0.0,94,0.00,,,0.00,Wunderground v.1.15,2013-01-14 06:23:00,
2013-01-14 01:29:00,60.4,58.7,30.18,WNW,286,0.0,0.0,94,0.00,,,0.00,Wunderground v.1.15,2013-01-14 06:29:00,
2013-01-14 01:38:00,60.2,58.5,30.18,WNW,286,0.0,0.0,94,0.00,,,0.00,Wunderground v.1.15,2013-01-14 06:38:00,
2013-01-14 01:44:00,60.3,58.6,30.18,WNW,286,0.0,0.0,94,0.00,,,0.00,Wunderground v.1.15,2013-01-14 06:44:00,
2013-01-14 01:54:00,60.3,58.6,30.17,WNW,286,0.0,0.0,94,0.00,,,0.00,Wunderground v.1.15,2013-01-14 06:54:00,
2013-01-14 02:04:00,60.0,58.3,30.18,WNW,285,0.0,0.0,94,0.00,,,0.00,Wunderground v.1.15,2013-01-14 07:04:00,
2013-01-14 02:14:00,60.5,59.1,30.18,WNW,286,0.0,0.0,95,0.00,,,0.00,Wunderground v.1.15,2013-01-14 07:14:00,
2013-01-14 02:23:00,60.0,58.3,30.17,WNW,286,0.0,0.0,94,0.00,,,0.00,Wunderground v.1.15,2013-01-14 07:23:00,
2013-01-14 02:28:00,59.8,58.1,30.18,WNW,286,0.0,0.0,94,0.00,,,0.00,Wunderground v.1.15,2013-01-14 07:28:00,
2013-01-14 02:39:00,59.2,57.5,30.18,WNW,286,0.0,0.0,94,0.00,,,0.00,Wunderground v.1.15,2013-01-14 07:39:00,
2013-01-14 02:48:00,58.8,57.4,30.17,WNW,286,0.0,0.0,95,0.00,,,0.00,Wunderground v.1.15,2013-01-14 07:48:00,
2013-01-14 02:58:00,58.7,57.3,30.17,WNW,286,0.0,0.0,95,0.00,,,0.00,Wunderground v.1.15,2013-01-14 07:58:00,
2013-01-14 03:04:00,58.4,57.0,30.17,WNW,286,0.0,0.0,95,0.00,,,0.00,Wunderground v.1.15,2013-01-14 08:04:00,
2013-01-14 03:13:00,58.7,57.6,30.17,WNW,286,0.0,0.0,96,0.00,,,0.00,Wunderground v.1.15,2013-01-14 08:13:00,
2013-01-14 03:23:00,58.4,57.0,30.17,WNW,286,0.0,0.0,95,0.00,,,0.00,Wunderground v.1.15,2013-01-14 08:23:00,
2013-01-14 03:28:00,58.2,56.8,30.17,WNW,286,0.0,0.0,95,0.00,,,0.00,Wunderground v.1.15,2013-01-14 08:28:00,
2013-01-14 03:38:00,58.4,57.3,30.17,WNW,286,0.0,0.0,96,0.00,,,0.00,Wunderground v.1.15,2013-01-14 08:38:00,
2013-01-14 03:49:00,58.5,57.4,30.16,WNW,286,0.0,0.0,96,0.00,,,0.00,Wunderground v.1.15,2013-01-14 08:49:00,
2013-01-14 03:58:00,58.3,57.2,30.16,WNW,286,0.0,0.0,96,0.00,,,0.00,Wunderground v.1.15,2013-01-14 08:58:00,
2013-01-14 04:04:00,58.2,57.1,30.16,WNW,286,0.0,0.0,96,0.00,,,0.00,Wunderground v.1.15,2013-01-14 09:04:00,
2013-01-14 04:14:00,58.3,57.2,30.16,WNW,285,0.0,0.0,96,0.00,,,0.00,Wunderground v.1.15,2013-01-14 09:14:00,
2013-01-14 04:19:00,58.0,56.6,30.16,WNW,286,0.0,0.0,95,0.00,,,0.00,Wunderground v.1.15,2013-01-14 09:19:00,
2013-01-14 04:28:00,57.6,56.2,30.16,WNW,286,0.0,0.0,95,0.00,,,0.00,Wunderground v.1.15,2013-01-14 09:28:00,
2013-01-14 04:33:00,57.5,56.4,30.16,WNW,286,0.0,0.0,96,0.00,,,0.00,Wunderground v.1.15,2013-01-14 09:33:00,
2013-01-14 04:43:00,57.5,56.4,30.16,WNW,286,0.0,0.0,96,0.00,,,0.00,Wunderground v.1.15,2013-01-14 09:43:00,
2013-01-14 04:54:00,57.9,56.8,30.16,WNW,286,0.0,0.0,96,0.00,,,0.00,Wunderground v.1.15,2013-01-14 09:54:00,
2013-01-14 05:04:00,58.0,56.9,30.15,WNW,286,0.0,0.0,96,0.00,,,0.00,Wunderground v.1.15,2013-01-14 10:04:00,
2013-01-14 05:13:00,59.0,58.2,30.15,WNW,286,0.0,0.0,97,0.00,,,0.00,Wunderground v.1.15,2013-01-14 10:13:00,
2013-01-14 05:18:00,59.6,59.0,30.15,WNW,286,0.0,0.0,98,0.00,,,0.00,Wunderground v.1.15,2013-01-14 10:18:00,
2013-01-14 05:30:00,60.2,59.3,30.15,WNW,283,0.0,0.0,97,0.00,,,0.00,Wunderground v.1.15,2013-01-14 10:30:00,
2013-01-14 05:39:00,60.9,60.0,30.15,WNW,288,0.0,0.0,97,0.00,,,0.00,Wunderground v.1.15,2013-01-14 10:39:00,
2013-01-14 05:48:00,61.2,60.3,30.15,WNW,288,0.0,0.0,97,0.00,,,0.00,Wunderground v.1.15,2013-01-14 10:48:00,
2013-01-14 05:58:00,61.4,60.5,30.15,WNW,288,0.0,0.0,97,0.00,,,0.00,Wunderground v.1.15,2013-01-14 10:58:00,
2013-01-14 06:04:00,61.4,60.5,30.15,WNW,288,0.0,0.0,97,0.00,,,0.00,Wunderground v.1.15,2013-01-14 11:04:00,
2013-01-14 06:13:00,61.4,60.5,30.15,WNW,288,0.0,0.0,97,0.00,,,0.00,Wunderground v.1.15,2013-01-14 11:13:00,
2013-01-14 06:24:00,61.6,60.7,30.15,WNW,288,0.0,0.0,97,0.00,,,0.00,Wunderground v.1.15,2013-01-14 11:24:00,
2013-01-14 06:33:00,61.7,60.8,30.15,WNW,288,0.0,0.0,97,0.00,,,0.00,Wunderground v.1.15,2013-01-14 11:33:00,
2013-01-14 06:39:00,61.6,60.7,30.16,WNW,288,0.0,0.0,97,0.00,,,0.00,Wunderground v.1.15,2013-01-14 11:39:00,
2013-01-14 06:48:00,61.7,60.8,30.17,WNW,288,0.0,0.0,97,0.00,,,0.00,Wunderground v.1.15,2013-01-14 11:48:00,
2013-01-14 06:54:00,61.6,60.7,30.17,WNW,288,0.0,0.0,97,0.00,,,0.00,Wunderground v.1.15,2013-01-14 11:54:00,
2013-01-14 07:04:00,61.3,60.2,30.17,SW,236,0.0,0.0,96,0.00,,,0.00,Wunderground v.1.15,2013-01-14 12:04:00,
2013-01-14 07:13:00,61.2,60.3,30.17,SW,236,0.0,0.0,97,0.00,,,0.00,Wunderground v.1.15,2013-01-14 12:13:00,
2013-01-14 07:18:00,61.2,60.3,30.17,SW,236,0.0,0.0,97,0.00,,,0.00,Wunderground v.1.15,2013-01-14 12:18:00,
2013-01-14 07:24:00,61.2,60.3,30.17,West,277,0.0,0.0,97,0.00,,,0.00,Wunderground v.1.15,2013-01-14 12:24:00,
2013-01-14 07:33:00,61.9,61.0,30.17,West,265,0.0,0.0,97,0.00,,,0.00,Wunderground v.1.15,2013-01-14 12:33:00,
2013-01-14 07:44:00,62.4,61.5,30.17,WNW,286,0.0,0.0,97,0.00,,,0.00,Wunderground v.1.15,2013-01-14 12:44:00,
2013-01-14 07:54:00,62.8,61.9,30.18,West,279,0.0,0.0,97,0.00,,,0.00,Wunderground v.1.15,2013-01-14 12:54:00,
2013-01-14 08:04:00,63.1,62.2,30.19,NNW,348,0.0,0.0,97,0.00,,,0.00,Wunderground v.1.15,2013-01-14 13:04:00,
2013-01-14 08:14:00,63.8,62.9,30.19,WNW,290,0.0,0.0,97,0.00,,,0.00,Wunderground v.1.15,2013-01-14 13:14:00,
2013-01-14 08:23:00,64.4,63.5,30.19,WSW,253,0.0,0.0,97,0.00,,,0.00,Wunderground v.1.15,2013-01-14 13:23:00,
2013-01-14 08:29:00,64.7,63.8,30.19,WSW,252,0.0,0.0,97,0.00,,,0.00,Wunderground v.1.15,2013-01-14 13:29:00,
2013-01-14 08:38:00,65.5,64.6,30.19,West,272,0.0,0.0,97,0.00,,,0.00,Wunderground v.1.15,2013-01-14 13:38:00,
2013-01-14 08:44:00,65.8,64.9,30.20,West,269,0.0,0.0,97,0.00,,,0.00,Wunderground v.1.15,2013-01-14 13:44:00,
2013-01-14 08:53:00,66.3,65.1,30.20,West,259,1.0,2.0,96,0.00,,,0.00,Wunderground v.1.15,2013-01-14 13:53:00,
2013-01-14 08:59:00,66.7,65.5,30.20,SW,236,1.0,1.0,96,0.00,,,0.00,Wunderground v.1.15,2013-01-14 13:59:00,
2013-01-14 09:04:00,67.2,66.0,30.20,West,259,1.0,1.0,96,0.00,,,0.00,Wunderground v.1.15,2013-01-14 14:04:00,
2013-01-14 09:13:00,68.2,66.7,30.20,SW,231,1.0,1.0,95,0.00,,,0.00,Wunderground v.1.15,2013-01-14 14:13:00,
2013-01-14 09:18:00,68.7,66.9,30.20,WSW,244,1.0,1.0,94,0.00,,,0.00,Wunderground v.1.15,2013-01-14 14:18:00,
2013-01-14 09:23:00,68.8,66.4,30.20,WSW,251,1.0,1.0,92,0.00,,,0.00,Wunderground v.1.15,2013-01-14 14:23:00,
2013-01-14 09:33:00,69.3,66.6,30.20,WSW,249,1.0,5.0,91,0.00,,,0.00,Wunderground v.1.15,2013-01-14 14:33:00,
2013-01-14 09:39:00,70.1,67.3,30.21,WSW,245,1.0,1.0,91,0.00,,,0.00,Wunderground v.1.15,2013-01-14 14:39:00,
2013-01-14 09:48:00,71.5,67.4,30.21,West,260,2.0,2.0,87,0.00,,,0.00,Wunderground v.1.15,2013-01-14 14:48:00,
2013-01-14 09:54:00,72.2,67.4,30.20,NW,310,1.0,2.0,85,0.00,,,0.00,Wunderground v.1.15,2013-01-14 14:54:00,
2013-01-14 10:04:00,73.5,67.7,30.21,SW,234,2.0,4.0,82,0.00,,,0.00,Wunderground v.1.15,2013-01-14 15:04:00,
2013-01-14 10:14:00,74.3,67.7,30.20,WSW,239,2.0,2.0,80,0.00,,,0.00,Wunderground v.1.15,2013-01-14 15:14:00,
2013-01-14 10:24:00,74.8,67.5,30.21,West,267,2.0,2.0,78,0.00,,,0.00,Wunderground v.1.15,2013-01-14 15:24:00,
2013-01-14 10:33:00,75.5,67.4,30.21,WSW,248,1.0,2.0,76,0.00,,,0.00,Wunderground v.1.15,2013-01-14 15:33:00,
2013-01-14 10:39:00,75.8,67.7,30.21,SW,229,1.0,1.0,76,0.00,,,0.00,Wunderground v.1.15,2013-01-14 15:39:00,
2013-01-14 10:48:00,76.3,67.0,30.20,West,260,2.0,4.0,73,0.00,,,0.00,Wunderground v.1.15,2013-01-14 15:48:00,
2013-01-14 10:53:00,76.1,67.2,30.20,West,265,3.0,4.0,74,0.00,,,0.00,Wunderground v.1.15,2013-01-14 15:53:00,
2013-01-14 10:59:00,76.2,67.7,30.20,WSW,251,3.0,3.0,75,0.00,,,0.00,Wunderground v.1.15,2013-01-14 15:59:00,
2013-01-14 11:04:00,76.5,67.6,30.20,WSW,257,2.0,3.0,74,0.00,,,0.00,Wunderground v.1.15,2013-01-14 16:04:00,
2013-01-14 11:13:00,76.5,67.2,30.19,WNW,284,3.0,5.0,73,0.00,,,0.00,Wunderground v.1.15,2013-01-14 16:13:00,
2013-01-14 11:18:00,76.7,67.0,30.19,WSW,250,3.0,3.0,72,0.00,,,0.00,Wunderground v.1.15,2013-01-14 16:18:00,
2013-01-14 11:28:00,77.0,67.3,30.18,SW,214,3.0,3.0,72,0.00,,,0.00,Wunderground v.1.15,2013-01-14 16:28:00,
2013-01-14 11:33:00,77.5,67.4,30.18,WSW,244,2.0,3.0,71,0.00,,,0.00,Wunderground v.1.15,2013-01-14 16:33:00,
2013-01-14 11:44:00,77.9,67.7,30.18,WSW,248,2.0,5.0,71,0.00,,,0.00,Wunderground v.1.15,2013-01-14 16:44:00,
2013-01-14 11:54:00,77.8,67.6,30.17,WSW,248,3.0,3.0,71,0.00,,,0.00,Wunderground v.1.15,2013-01-14 16:54:00,
2013-01-14 12:04:00,78.0,67.0,30.17,SW,234,3.0,4.0,69,0.00,,,0.00,Wunderground v.1.15,2013-01-14 17:04:00,
2013-01-14 12:13:00,78.3,67.3,30.16,WSW,250,3.0,3.0,69,0.00,,,0.00,Wunderground v.1.15,2013-01-14 17:13:00,
2013-01-14 12:24:00,78.9,67.0,30.16,WSW,245,2.0,2.0,67,0.00,,,0.00,Wunderground v.1.15,2013-01-14 17:24:00,
2013-01-14 12:33:00,79.4,67.0,30.15,WNW,290,2.0,2.0,66,0.00,,,0.00,Wunderground v.1.15,2013-01-14 17:33:00,
2013-01-14 12:44:00,79.8,67.0,30.15,West,280,1.0,3.0,65,0.00,,,0.00,Wunderground v.1.15,2013-01-14 17:44:00,
2013-01-14 12:53:00,80.3,66.6,30.15,WSW,254,1.0,3.0,63,0.00,,,0.00,Wunderground v.1.15,2013-01-14 17:53:00,
2013-01-14 12:59:00,80.6,66.4,30.15,WSW,244,1.0,1.0,62,0.00,,,0.00,Wunderground v.1.15,2013-01-14 17:59:00,
2013-01-14 13:04:00,80.7,66.5,30.14,West,261,1.0,1.0,62,0.00,,,0.00,Wunderground v.1.15,2013-01-14 18:04:00,
2013-01-14 13:13:00,81.0,66.8,30.14,WSW,248,1.0,1.0,62,0.00,,,0.00,Wunderground v.1.15,2013-01-14 18:13:00,
2013-01-14 13:18:00,80.9,65.7,30.14,WSW,244,2.0,2.0,60,0.00,,,0.00,Wunderground v.1.15,2013-01-14 18:18:00,
2013-01-14 13:28:00,81.3,65.6,30.13,SW,236,1.0,1.0,59,0.00,,,0.00,Wunderground v.1.15,2013-01-14 18:28:00,
2013-01-14 13:33:00,81.1,65.4,30.13,South,182,1.0,3.0,59,0.00,,,0.00,Wunderground v.1.15,2013-01-14 18:33:00,
2013-01-14 13:43:00,81.0,65.8,30.13,WSW,257,2.0,2.0,60,0.00,,,0.00,Wunderground v.1.15,2013-01-14 18:43:00,
2013-01-14 13:48:00,81.3,66.1,30.12,WSW,241,1.0,1.0,60,0.00,,,0.00,Wunderground v.1.15,2013-01-14 18:48:00,
2013-01-14 13:58:00,81.7,66.5,30.12,WSW,238,1.0,1.0,60,0.00,,,0.00,Wunderground v.1.15,2013-01-14 18:58:00,
2013-01-14 14:04:00,81.6,65.9,30.12,West,261,1.0,1.0,59,0.00,,,0.00,Wunderground v.1.15,2013-01-14 19:04:00,
2013-01-14 14:13:00,81.7,66.0,30.12,West,263,1.0,4.0,59,0.00,,,0.00,Wunderground v.1.15,2013-01-14 19:13:00,
2013-01-14 14:19:00,82.1,65.4,30.12,ESE,103,1.0,3.0,57,0.00,,,0.00,Wunderground v.1.15,2013-01-14 19:19:00,
2013-01-14 14:28:00,81.7,65.0,30.13,SW,236,1.0,1.0,57,0.00,,,0.00,Wunderground v.1.15,2013-01-14 19:28:00,
2013-01-14 14:39:00,81.3,65.6,30.13,SE,146,1.0,1.0,59,0.00,,,0.00,Wunderground v.1.15,2013-01-14 19:39:00,
2013-01-14 14:48:00,80.4,64.3,30.13,SW,232,0.0,0.0,58,0.00,,,0.00,Wunderground v.1.15,2013-01-14 19:48:00,
2013-01-14 14:54:00,79.8,64.7,30.13,West,261,0.0,2.0,60,0.00,,,0.00,Wunderground v.1.15,2013-01-14 19:54:00,
2013-01-14 15:04:00,80.6,65.9,30.13,ENE,69,1.0,3.0,61,0.00,,,0.00,Wunderground v.1.15,2013-01-14 20:04:00,
2013-01-14 15:14:00,79.1,65.9,30.13,ENE,61,4.0,7.0,64,0.00,,,0.00,Wunderground v.1.15,2013-01-14 20:14:00,
2013-01-14 15:23:00,77.9,66.1,30.13,SE,126,4.0,4.0,67,0.00,,,0.00,Wunderground v.1.15,2013-01-14 20:23:00,
2013-01-14 15:28:00,78.2,66.3,30.13,ESE,123,2.0,3.0,67,0.00,,,0.00,Wunderground v.1.15,2013-01-14 20:28:00,
2013-01-14 15:33:00,77.9,66.1,30.13,South,176,3.0,3.0,67,0.00,,,0.00,Wunderground v.1.15,2013-01-14 20:33:00,
2013-01-14 15:39:00,78.1,66.2,30.14,SE,144,2.0,2.0,67,0.00,,,0.00,Wunderground v.1.15,2013-01-14 20:39:00,
2013-01-14 15:48:00,78.0,65.7,30.14,SE,125,2.0,3.0,66,0.00,,,0.00,Wunderground v.1.15,2013-01-14 20:48:00,
2013-01-14 15:59:00,77.2,65.4,30.14,ESE,113,3.0,3.0,67,0.00,,,0.00,Wunderground v.1.15,2013-01-14 20:59:00,
2013-01-14 16:04:00,77.2,65.4,30.14,ESE,113,3.0,4.0,67,0.00,,,0.00,Wunderground v.1.15,2013-01-14 21:04:00,
2013-01-14 16:14:00,77.1,64.9,30.15,ESE,111,2.0,5.0,66,0.00,,,0.00,Wunderground v.1.15,2013-01-14 21:14:00,
2013-01-14 16:23:00,76.5,64.3,30.15,ESE,111,3.0,3.0,66,0.00,,,0.00,Wunderground v.1.15,2013-01-14 21:23:00,
2013-01-14 16:33:00,76.1,63.9,30.15,NE,44,3.0,3.0,66,0.00,,,0.00,Wunderground v.1.15,2013-01-14 21:33:00,
2013-01-14 16:44:00,75.4,63.7,30.15,ESE,123,3.0,3.0,67,0.00,,,0.00,Wunderground v.1.15,2013-01-14 21:44:00,
2013-01-14 16:53:00,74.7,63.4,30.15,NE,55,2.0,3.0,68,0.00,,,0.00,Wunderground v.1.15,2013-01-14 21:53:00,
2013-01-14 16:58:00,74.4,63.1,30.15,NE,42,3.0,3.0,68,0.00,,,0.00,Wunderground v.1.15,2013-01-14 21:58:00,
2013-01-14 17:04:00,74.2,63.4,30.15,SE,146,2.0,3.0,69,0.00,,,0.00,Wunderground v.1.15,2013-01-14 22:04:00,
2013-01-14 17:14:00,73.7,63.3,30.16,East,89,1.0,1.0,70,0.00,,,0.00,Wunderground v.1.15,2013-01-14 22:14:00,
2013-01-14 17:23:00,73.2,63.2,30.16,East,95,1.0,1.0,71,0.00,,,0.00,Wunderground v.1.15,2013-01-14 22:23:00,
2013-01-14 17:33:00,72.7,63.1,30.16,ESE,123,1.0,3.0,72,0.00,,,0.00,Wunderground v.1.15,2013-01-14 22:33:00,
2013-01-14 17:44:00,72.0,63.3,30.16,East,89,0.0,0.0,74,0.00,,,0.00,Wunderground v.1.15,2013-01-14 22:44:00,
2013-01-14 17:53:00,71.3,63.0,30.17,ESE,116,1.0,1.0,75,0.00,,,0.00,Wunderground v.1.15,2013-01-14 22:53:00,
2013-01-14 17:59:00,71.1,63.1,30.17,South,169,0.0,0.0,76,0.00,,,0.00,Wunderground v.1.15,2013-01-14 22:59:00,
2013-01-14 18:04:00,70.9,63.0,30.17,SSE,155,1.0,1.0,76,0.00,,,0.00,Wunderground v.1.15,2013-01-14 23:04:00,
2013-01-14 18:14:00,70.6,62.7,30.17,ESE,108,0.0,2.0,76,0.00,,,0.00,Wunderground v.1.15,2013-01-14 23:14:00,
2013-01-14 18:19:00,70.5,62.6,30.17,ESE,105,1.0,1.0,76,0.00,,,0.00,Wunderground v.1.15,2013-01-14 23:19:00,
2013-01-14 18:28:00,70.2,62.6,30.17,SSE,150,0.0,0.0,77,0.00,,,0.00,Wunderground v.1.15,2013-01-14 23:28:00,
2013-01-14 18:33:00,70.1,62.6,30.17,SE,133,0.0,1.0,77,0.00,,,0.00,Wunderground v.1.15,2013-01-14 23:33:00,
2013-01-14 18:43:00,69.9,62.7,30.17,South,169,1.0,3.0,78,0.00,,,0.00,Wunderground v.1.15,2013-01-14 23:43:00,
2013-01-14 18:48:00,70.0,63.2,30.18,SSE,157,1.0,1.0,79,0.00,,,0.00,Wunderground v.1.15,2013-01-14 23:48:00,
2013-01-14 18:58:00,69.9,63.1,30.18,SE,138,1.0,1.0,79,0.00,,,0.00,Wunderground v.1.15,2013-01-14 23:58:00,
2013-01-14 19:04:00,69.8,63.0,30.17,SSE,156,1.0,1.0,79,0.00,,,0.00,Wunderground v.1.15,2013-01-15 00:04:00,
2013-01-14 19:13:00,69.7,62.9,30.17,SE,141,1.0,3.0,79,0.00,,,0.00,Wunderground v.1.15,2013-01-15 00:13:00,
2013-01-14 19:19:00,69.5,63.1,30.17,ESE,111,1.0,1.0,80,0.00,,,0.00,Wunderground v.1.15,2013-01-15 00:19:00,
2013-01-14 19:28:00,69.2,62.8,30.18,SE,124,0.0,0.0,80,0.00,,,0.00,Wunderground v.1.15,2013-01-15 00:28:00,
2013-01-14 19:33:00,69.1,63.0,30.18,SW,221,0.0,0.0,81,0.00,,,0.00,Wunderground v.1.15,2013-01-15 00:33:00,
2013-01-14 19:39:00,69.0,62.9,30.17,SE,133,0.0,0.0,81,0.00,,,0.00,Wunderground v.1.15,2013-01-15 00:39:00,
2013-01-14 19:48:00,69.0,62.9,30.17,SE,133,1.0,1.0,81,0.00,,,0.00,Wunderground v.1.15,2013-01-15 00:48:00,
2013-01-14 19:58:00,68.9,62.8,30.17,WSW,254,1.0,2.0,81,0.00,,,0.00,Wunderground v.1.15,2013-01-15 00:58:00,
2013-01-14 20:04:00,68.9,62.8,30.17,ESE,114,1.0,2.0,81,0.00,,,0.00,Wunderground v.1.15,2013-01-15 01:04:00,
2013-01-14 20:13:00,69.0,62.6,30.17,SSE,155,1.0,3.0,80,0.00,,,0.00,Wunderground v.1.15,2013-01-15 01:13:00,
2013-01-14 20:18:00,69.0,62.6,30.17,SE,138,1.0,1.0,80,0.00,,,0.00,Wunderground v.1.15,2013-01-15 01:18:00,
2013-01-14 20:29:00,68.9,62.8,30.17,ESE,106,1.0,1.0,81,0.00,,,0.00,Wunderground v.1.15,2013-01-15 01:29:00,
2013-01-14 20:38:00,68.8,62.7,30.18,WNW,284,0.0,0.0,81,0.00,,,0.00,Wunderground v.1.15,2013-01-15 01:38:00,
2013-01-14 20:44:00,68.6,62.5,30.18,SSE,157,0.0,0.0,81,0.00,,,0.00,Wunderground v.1.15,2013-01-15 01:44:00,
2013-01-14 20:54:00,68.4,62.7,30.18,SW,223,0.0,2.0,82,0.00,,,0.00,Wunderground v.1.15,2013-01-15 01:54:00,
2013-01-14 21:04:00,68.2,62.8,30.17,SE,134,0.0,1.0,83,0.00,,,0.00,Wunderground v.1.15,2013-01-15 02:04:00,
2013-01-14 21:13:00,68.1,63.1,30.17,SSE,160,0.0,0.0,84,0.00,,,0.00,Wunderground v.1.15,2013-01-15 02:13:00,
2013-01-14 21:19:00,68.1,63.1,30.17,SSW,205,0.0,0.0,84,0.00,,,0.00,Wunderground v.1.15,2013-01-15 02:19:00,
2013-01-14 21:28:00,67.9,62.9,30.17,South,171,0.0,0.0,84,0.00,,,0.00,Wunderground v.1.15,2013-01-15 02:28:00,
2013-01-14 21:34:00,67.9,63.2,30.17,West,261,0.0,0.0,85,0.00,,,0.00,Wunderground v.1.15,2013-01-15 02:34:00,
2013-01-14 21:44:00,67.9,63.2,30.17,NNE,23,0.0,0.0,85,0.00,,,0.00,Wunderground v.1.15,2013-01-15 02:44:00,
2013-01-14 21:53:00,67.8,63.1,30.17,SW,236,0.0,0.0,85,0.00,,,0.00,Wunderground v.1.15,2013-01-15 02:53:00,
2013-01-14 21:59:00,67.6,62.9,30.17,South,179,0.0,0.0,85,0.00,,,0.00,Wunderground v.1.15,2013-01-15 02:59:00,
2013-01-14 22:04:00,67.4,62.7,30.17,WNW,288,0.0,0.0,85,0.00,,,0.00,Wunderground v.1.15,2013-01-15 03:04:00,
2013-01-14 22:13:00,67.2,62.9,30.17,WNW,295,0.0,0.0,86,0.00,,,0.00,Wunderground v.1.15,2013-01-15 03:13:00,
2013-01-14 22:23:00,67.1,62.8,30.17,ESE,109,0.0,0.0,86,0.00,,,0.00,Wunderground v.1.15,2013-01-15 03:23:00,
2013-01-14 22:33:00,67.0,62.7,30.17,WSW,254,0.0,0.0,86,0.00,,,0.00,Wunderground v.1.15,2013-01-15 03:33:00,
2013-01-14 22:38:00,67.0,62.7,30.17,West,267,0.0,0.0,86,0.00,,,0.00,Wunderground v.1.15,2013-01-15 03:38:00,
2013-01-14 22:44:00,67.1,63.1,30.17,West,259,0.0,0.0,87,0.00,,,0.00,Wunderground v.1.15,2013-01-15 03:44:00,
2013-01-14 22:53:00,67.3,63.0,30.17,SSW,199,0.0,1.0,86,0.00,,,0.00,Wunderground v.1.15,2013-01-15 03:53:00,
2013-01-14 23:04:00,67.4,63.1,30.18,West,263,0.0,1.0,86,0.00,,,0.00,Wunderground v.1.15,2013-01-15 04:04:00,
2013-01-14 23:13:00,67.5,63.2,30.18,West,268,0.0,0.0,86,0.00,,,0.00,Wunderground v.1.15,2013-01-15 04:13:00,
2013-01-14 23:18:00,67.4,63.1,30.17,WNW,283,0.0,0.0,86,0.00,,,0.00,Wunderground v.1.15,2013-01-15 04:18:00,
2013-01-14 23:28:00,67.2,62.9,30.18,West,281,0.0,0.0,86,0.00,,,0.00,Wunderground v.1.15,2013-01-15 04:28:00,
2013-01-14 23:33:00,67.1,62.8,30.18,West,264,0.0,0.0,86,0.00,,,0.00,Wunderground v.1.15,2013-01-15 04:33:00,
2013-01-14 23:43:00,66.9,62.9,30.18,WNW,288,0.0,0.0,87,0.00,,,0.00,Wunderground v.1.15,2013-01-15 04:43:00,
2013-01-14 23:48:00,66.8,62.8,30.18,WNW,288,0.0,0.0,87,0.00,,,0.00,Wunderground v.1.15,2013-01-15 04:48:00,
2013-01-14 23:59:00,66.5,62.5,30.18,WNW,288,0.0,0.0,87,0.00,,,0.00,Wunderground v.1.15,2013-01-15 04:59:00,